createdAt,value
2022-08-19T00:00:28.678Z,92842.38
2022-08-19T00:02:02.772Z,92843.16
2022-08-19T00:03:34.402Z,92843.94
2022-08-19T00:05:06.160Z,92847.03
2022-08-19T00:06:38.063Z,92842.72
2022-08-19T00:08:09.736Z,92843.47
2022-08-19T00:09:41.667Z,92845.41
2022-08-19T00:11:18.730Z,92839.16
2022-08-19T00:12:57.640Z,92835.97
2022-08-19T00:14:32.759Z,92835.19
2022-08-19T00:16:04.682Z,92835.88
2022-08-19T00:17:36.223Z,92827.66
2022-08-19T00:19:13.766Z,92831.97
2022-08-19T00:20:45.380Z,92831.19
2022-08-19T00:22:18.496Z,92839.81
2022-08-19T00:23:51.326Z,92846.13
2022-08-19T00:25:29.960Z,92839.88
2022-08-19T00:27:25.910Z,92840.28
2022-08-19T00:28:54.799Z,92844.53
2022-08-19T00:30:28.591Z,92847.63
2022-08-19T00:32:01.072Z,92841.34
2022-08-19T00:33:35.964Z,92853.06
2022-08-19T00:35:07.941Z,92842.44
2022-08-19T00:36:40.391Z,92849.88
2022-08-19T00:38:11.942Z,92849.03
2022-08-19T00:39:43.628Z,92842.75
2022-08-19T00:41:15.772Z,92846.19
2022-08-19T00:42:47.576Z,92850.44
2022-08-19T00:44:26.902Z,92839.13
2022-08-19T00:45:58.945Z,92842.72
2022-08-19T00:47:30.539Z,92837.25
2022-08-19T00:49:03.363Z,92839.25
2022-08-19T00:50:35.033Z,92833.44
2022-08-19T00:52:10.395Z,92835.03
2022-08-19T00:53:42.030Z,92825.28
2022-08-19T00:55:14.383Z,92831.94
2022-08-19T00:56:46.811Z,92826.88
2022-08-19T00:58:19.040Z,92828.47
2022-08-19T00:59:53.466Z,92825.69
2022-08-19T01:01:33.783Z,92824.88
2022-08-19T01:03:09.268Z,92823.28
2022-08-19T01:04:41.239Z,92826.06
2022-08-19T01:06:12.784Z,92823.28
2022-08-19T01:07:44.453Z,92829.53
2022-08-19T01:09:16.249Z,92836.19
2022-08-19T01:10:49.111Z,92835.72
2022-08-19T01:12:23.844Z,92834.16
2022-08-19T01:13:55.532Z,92839.50
2022-08-19T01:15:28.337Z,92836.72
2022-08-19T01:17:01.226Z,92833.94
2022-08-19T01:18:33.052Z,92831.91
2022-08-19T01:20:05.138Z,92843.97
2022-08-19T01:21:41.829Z,92828.31
2022-08-19T01:23:13.703Z,92835.28
2022-08-19T01:24:49.537Z,92827.34
2022-08-19T01:26:23.661Z,92831.59
2022-08-19T01:27:55.484Z,92832.72
2022-08-19T01:29:33.278Z,92827.59
2022-08-19T01:31:07.948Z,92834.16
2022-08-19T01:32:40.463Z,92845.09
2022-08-19T01:34:12.216Z,92843.53
2022-08-19T01:35:43.765Z,92838.84
2022-08-19T01:37:15.528Z,92843.09
2022-08-19T01:38:56.803Z,92847.03
2022-08-19T01:40:30.342Z,92847.78
2022-08-19T01:42:04.534Z,92850.06
2022-08-19T01:43:36.771Z,92846.84
2022-08-19T01:45:08.798Z,92846.00
2022-08-19T01:46:40.473Z,92846.34
2022-08-19T01:48:12.670Z,92847.44
2022-08-19T01:49:44.314Z,92854.00
2022-08-19T01:51:16.267Z,92852.41
2022-08-19T01:52:47.974Z,92851.97
2022-08-19T01:54:34.977Z,92852.34
2022-08-19T01:56:07.083Z,92848.41
2022-08-19T01:57:39.157Z,92854.56
2022-08-19T01:59:15.172Z,92863.81
2022-08-19T02:00:47.652Z,92847.31
2022-08-19T02:02:19.347Z,92845.72
2022-08-19T02:03:51.207Z,92840.94
2022-08-19T02:05:22.822Z,92838.19
2022-08-19T02:06:54.794Z,92836.50
2022-08-19T02:08:27.235Z,92839.25
2022-08-19T02:09:59.173Z,92825.97
2022-08-19T02:11:35.130Z,92826.38
2022-08-19T02:13:06.721Z,92824.44
2022-08-19T02:14:38.687Z,92835.81
2022-08-19T02:16:11.147Z,92825.69
2022-08-19T02:17:43.060Z,92828.84
2022-08-19T02:19:14.627Z,92828.41
2022-08-19T02:20:48.223Z,92829.09
2022-08-19T02:22:20.662Z,92831.00
2022-08-19T02:23:52.278Z,92828.22
2022-08-19T02:25:23.890Z,92823.50
2022-08-19T02:26:55.402Z,92836.72
2022-08-19T02:28:27.536Z,92832.78
2022-08-19T02:29:59.354Z,92835.88
2022-08-19T02:31:31.179Z,92837.09
2022-08-19T02:33:03.107Z,92836.28
2022-08-19T02:34:34.978Z,92834.34
2022-08-19T02:36:07.362Z,92836.72
2022-08-19T02:38:08.663Z,92833.19
2022-08-19T02:39:40.328Z,92825.38
2022-08-19T02:41:18.973Z,92828.53
2022-08-19T02:42:50.471Z,92834.41
2022-08-19T02:44:31.296Z,92828.63
2022-08-19T02:46:11.847Z,92829.06
2022-08-19T02:47:43.865Z,92828.31
2022-08-19T02:49:17.619Z,92829.09
2022-08-19T02:50:54.502Z,92830.63
2022-08-19T02:52:26.534Z,92820.84
2022-08-19T02:53:58.115Z,92832.84
2022-08-19T02:55:29.933Z,92832.84
2022-08-19T02:57:02.027Z,92832.06
2022-08-19T02:58:33.559Z,92841.38
2022-08-19T03:00:06.341Z,92837.50
2022-08-19T03:01:38.027Z,92840.59
2022-08-19T03:03:09.661Z,92838.19
2022-08-19T03:04:41.329Z,92842.09
2022-08-19T03:06:14.114Z,92840.50
2022-08-19T03:07:46.634Z,92848.25
2022-08-19T03:09:19.384Z,92845.84
2022-08-19T03:10:52.987Z,92848.47
2022-08-19T03:12:25.032Z,92855.06
2022-08-19T03:13:56.652Z,92853.50
2022-08-19T03:15:28.354Z,92851.88
2022-08-19T03:17:00.025Z,92846.28
2022-08-19T03:18:31.650Z,92842.31
2022-08-19T03:20:04.210Z,92846.09
2022-08-19T03:21:36.069Z,92847.22
2022-08-19T03:23:07.632Z,92842.84
2022-08-19T03:24:40.158Z,92843.91
2022-08-19T03:26:16.044Z,92844.25
2022-08-19T03:27:50.715Z,92847.31
2022-08-19T03:29:30.121Z,92845.81
2022-08-19T03:31:03.765Z,92850.91
2022-08-19T03:32:35.678Z,92845.03
2022-08-19T03:34:18.946Z,92850.84
2022-08-19T03:36:00.739Z,92849.63
2022-08-19T03:37:32.382Z,92855.34
2022-08-19T03:39:03.955Z,92852.56
2022-08-19T03:40:37.689Z,92846.25
2022-08-19T03:42:38.594Z,92846.25
2022-08-19T03:44:01.161Z,92857.16
2022-08-19T03:45:32.758Z,92850.91
2022-08-19T03:47:05.013Z,92863.34
2022-08-19T03:48:36.862Z,92868.38
2022-08-19T03:50:09.870Z,92860.19
2022-08-19T03:51:41.762Z,92862.16
2022-08-19T03:53:13.352Z,92860.22
2022-08-19T03:54:45.080Z,92868.38
2022-08-19T03:56:16.633Z,92861.69
2022-08-19T03:57:49.752Z,92852.72
2022-08-19T03:59:23.583Z,92862.84
2022-08-19T04:00:56.337Z,92862.47
2022-08-19T04:02:28.056Z,92862.13
2022-08-19T04:03:59.855Z,92876.19
2022-08-19T04:05:31.408Z,92875.03
2022-08-19T04:07:03.217Z,92868.00
2022-08-19T04:08:34.762Z,92874.59
2022-08-19T04:10:06.495Z,92868.38
2022-08-19T04:11:44.827Z,92873.03
2022-08-19T04:13:17.182Z,92873.03
2022-08-19T04:14:49.100Z,92876.53
2022-08-19T04:16:21.300Z,92874.59
2022-08-19T04:18:03.358Z,92878.91
2022-08-19T04:19:35.515Z,92880.47
2022-08-19T04:21:07.515Z,92882.47
2022-08-19T04:22:39.151Z,92878.66
2022-08-19T04:24:10.751Z,92886.97
2022-08-19T04:25:43.482Z,92885.91
2022-08-19T04:27:15.446Z,92886.75
2022-08-19T04:28:47.213Z,92887.19
2022-08-19T04:30:19.186Z,92884.97
2022-08-19T04:31:50.866Z,92889.75
2022-08-19T04:33:26.706Z,92885.25
2022-08-19T04:35:02.575Z,92894.03
2022-08-19T04:36:51.946Z,92892.63
2022-08-19T04:38:26.314Z,92891.13
2022-08-19T04:40:16.592Z,92884.88
2022-08-19T04:42:08.667Z,92889.63
2022-08-19T04:43:40.494Z,92891.22
2022-08-19T04:45:13.346Z,92881.97
2022-08-19T04:46:51.357Z,92880.31
2022-08-19T04:48:29.537Z,92885.75
2022-08-19T04:50:01.336Z,92890.75
2022-08-19T04:51:33.674Z,92884.97
2022-08-19T04:53:06.377Z,92886.69
2022-08-19T04:54:39.352Z,92892.19
2022-08-19T04:56:12.454Z,92894.91
2022-08-19T04:57:44.087Z,92901.53
2022-08-19T04:59:17.162Z,92896.91
2022-08-19T05:00:49.297Z,92899.41
2022-08-19T05:02:20.940Z,92892.56
2022-08-19T05:03:53.345Z,92892.72
2022-08-19T05:05:24.936Z,92896.78
2022-08-19T05:07:00.066Z,92896.16
2022-08-19T05:08:32.928Z,92902.13
2022-08-19T05:10:06.051Z,92904.22
2022-08-19T05:11:39.847Z,92899.25
2022-08-19T05:13:12.419Z,92900.13
2022-08-19T05:14:44.446Z,92897.16
2022-08-19T05:16:16.745Z,92900.81
2022-08-19T05:18:08.257Z,92893.09
2022-08-19T05:19:58.616Z,92901.81
2022-08-19T05:21:48.808Z,92899.97
2022-08-19T05:23:22.778Z,92905.19
2022-08-19T05:25:11.587Z,92901.41
2022-08-19T05:26:47.715Z,92902.69
2022-08-19T05:28:20.212Z,92898.88
2022-08-19T05:29:51.843Z,92902.88
2022-08-19T05:31:23.515Z,92908.81
2022-08-19T05:32:57.105Z,92898.72
2022-08-19T05:34:28.974Z,92901.16
2022-08-19T05:36:00.636Z,92908.69
2022-08-19T05:37:32.267Z,92896.59
2022-08-19T05:39:04.277Z,92900.53
2022-08-19T05:40:37.229Z,92897.47
2022-08-19T05:42:09.981Z,92905.31
2022-08-19T05:43:41.687Z,92905.72
2022-08-19T05:45:13.814Z,92899.09
2022-08-19T05:46:48.034Z,92893.66
2022-08-19T05:48:21.604Z,92893.69
2022-08-19T05:49:53.319Z,92891.34
2022-08-19T05:51:28.974Z,92892.53
2022-08-19T05:53:01.021Z,92889.78
2022-08-19T05:54:33.393Z,92890.22
2022-08-19T05:56:08.695Z,92890.63
2022-08-19T05:57:40.648Z,92887.50
2022-08-19T05:59:12.880Z,92890.69
2022-08-19T06:00:44.799Z,92893.06
2022-08-19T06:02:16.501Z,92894.25
2022-08-19T06:03:48.798Z,92883.66
2022-08-19T06:05:21.261Z,92882.88
2022-08-19T06:06:53.782Z,92893.44
2022-08-19T06:08:34.458Z,92893.50
2022-08-19T06:10:07.697Z,92890.72
2022-08-19T06:11:44.623Z,92893.50
2022-08-19T06:13:16.363Z,92898.59
2022-08-19T06:14:47.979Z,92897.44
2022-08-19T06:16:33.337Z,92897.09
2022-08-19T06:18:05.330Z,92899.47
2022-08-19T06:19:40.836Z,92895.94
2022-08-19T06:21:13.218Z,92897.09
2022-08-19T06:22:46.647Z,92899.84
2022-08-19T06:24:19.479Z,92901.78
2022-08-19T06:25:51.346Z,92902.19
2022-08-19T06:27:23.098Z,92899.81
2022-08-19T06:28:55.114Z,92893.13
2022-08-19T06:30:26.904Z,92894.69
2022-08-19T06:31:59.228Z,92902.91
2022-08-19T06:33:31.375Z,92895.41
2022-08-19T06:35:03.755Z,92894.16
2022-08-19T06:36:36.758Z,92886.25
2022-08-19T06:38:08.632Z,92894.84
2022-08-19T06:39:41.063Z,92894.03
2022-08-19T06:41:13.084Z,92892.03
2022-08-19T06:42:54.313Z,92890.84
2022-08-19T06:44:27.881Z,92891.66
2022-08-19T06:46:00.511Z,92888.50
2022-08-19T06:47:37.597Z,92894.41
2022-08-19T06:49:12.729Z,92897.91
2022-08-19T06:50:44.527Z,92904.09
2022-08-19T06:52:17.424Z,92906.78
2022-08-19T06:55:26.876Z,92899.53
2022-08-19T06:56:59.592Z,92903.34
2022-08-19T06:58:34.334Z,92909.13
2022-08-19T07:00:12.255Z,92904.31
2022-08-19T07:01:47.689Z,92912.47
2022-08-19T07:03:19.865Z,92910.81
2022-08-19T07:04:52.721Z,92914.31
2022-08-19T07:06:43.484Z,92901.22
2022-08-19T07:08:17.010Z,92910.88
2022-08-19T07:09:52.205Z,92915.00
2022-08-19T07:11:32.450Z,92910.03
2022-08-19T07:13:07.169Z,92914.88
2022-08-19T07:14:39.157Z,92913.44
2022-08-19T07:16:12.758Z,92916.81
2022-08-19T07:17:45.343Z,92920.69
2022-08-19T07:19:20.214Z,92916.94
2022-08-19T07:20:52.098Z,92914.41
2022-08-19T07:22:24.580Z,92917.28
2022-08-19T07:23:57.801Z,92911.16
2022-08-19T07:25:32.151Z,92914.09
2022-08-19T07:27:10.321Z,92909.63
2022-08-19T07:28:51.460Z,92907.41
2022-08-19T07:30:26.202Z,92900.16
2022-08-19T07:32:00.124Z,92907.41
2022-08-19T07:33:33.920Z,92905.06
2022-08-19T07:35:07.056Z,92905.50
2022-08-19T07:36:39.464Z,92901.88
2022-08-19T07:38:11.999Z,92895.72
2022-08-19T07:39:44.214Z,92906.28
2022-08-19T07:41:18.206Z,92909.34
2022-08-19T07:42:49.888Z,92908.31
2022-08-19T07:44:21.749Z,92907.38
2022-08-19T07:45:54.427Z,92909.78
2022-08-19T07:47:49.961Z,92909.00
2022-08-19T07:49:21.411Z,92905.53
2022-08-19T07:50:54.238Z,92907.94
2022-08-19T07:52:25.959Z,92916.63
2022-08-19T07:53:57.707Z,92917.47
2022-08-19T07:55:41.225Z,92919.16
2022-08-19T07:57:15.760Z,92913.47
2022-08-19T07:58:48.409Z,92916.47
2022-08-19T08:00:23.201Z,92919.84
2022-08-19T08:01:56.590Z,92918.00
2022-08-19T08:03:46.971Z,92914.88
2022-08-19T08:05:39.665Z,92916.94
2022-08-19T08:07:33.216Z,92917.81
2022-08-19T08:09:17.166Z,92914.31
2022-08-19T08:10:54.620Z,92915.25
2022-08-19T08:12:34.790Z,92915.06
2022-08-19T08:14:07.367Z,92908.09
2022-08-19T08:15:58.941Z,92909.63
2022-08-19T08:17:49.691Z,92908.75
2022-08-19T08:19:25.569Z,92900.59
2022-08-19T08:20:57.709Z,92902.56
2022-08-19T08:22:47.914Z,92904.06
2022-08-19T08:24:19.944Z,92905.78
2022-08-19T08:25:52.006Z,92904.91
2022-08-19T08:27:26.421Z,92896.94
2022-08-19T08:28:59.035Z,92899.25
2022-08-19T08:30:31.418Z,92899.22
2022-08-19T08:32:14.939Z,92901.03
2022-08-19T08:33:46.953Z,92897.75
2022-08-19T08:35:19.921Z,92901.97
2022-08-19T08:36:53.330Z,92894.44
2022-08-19T08:38:25.114Z,92893.81
2022-08-19T08:39:59.992Z,92890.13
2022-08-19T08:41:34.194Z,92884.16
2022-08-19T08:43:19.893Z,92886.84
2022-08-19T08:46:34.562Z,92885.63
2022-08-19T08:48:23.857Z,92884.63
2022-08-19T08:49:57.557Z,92887.06
2022-08-19T08:51:34.846Z,92882.25
2022-08-19T08:53:06.997Z,92880.03
2022-08-19T08:54:41.129Z,92880.44
2022-08-19T08:56:26.826Z,92875.59
2022-08-19T08:58:02.842Z,92880.72
2022-08-19T08:59:35.930Z,92885.19
2022-08-19T09:01:07.602Z,92879.78
2022-08-19T09:02:39.443Z,92881.88
2022-08-19T09:04:15.699Z,92882.47
2022-08-19T09:05:51.842Z,92879.72
2022-08-19T09:07:34.952Z,92875.47
2022-08-19T09:09:14.906Z,92877.06
2022-08-19T09:10:55.077Z,92880.78
2022-08-19T09:12:32.347Z,92875.66
2022-08-19T09:14:34.912Z,92878.50
2022-08-19T09:16:09.139Z,92871.75
2022-08-19T09:17:41.026Z,92868.91
2022-08-19T09:19:13.139Z,92869.75
2022-08-19T09:20:45.487Z,92874.28
2022-08-19T09:22:23.582Z,92866.13
2022-08-19T09:23:58.884Z,92867.25
2022-08-19T09:25:33.088Z,92866.81
2022-08-19T09:27:18.386Z,92867.59
2022-08-19T09:28:51.665Z,92859.81
2022-08-19T09:30:29.826Z,92862.97
2022-08-19T09:32:03.120Z,92862.00
2022-08-19T09:33:34.717Z,92851.72
2022-08-19T09:35:08.831Z,92857.16
2022-08-19T09:36:42.041Z,92855.38
2022-08-19T09:38:13.956Z,92856.19
2022-08-19T09:39:46.151Z,92852.88
2022-08-19T09:41:19.130Z,92852.13
2022-08-19T09:42:52.667Z,92843.47
2022-08-19T09:44:25.502Z,92850.31
2022-08-19T09:45:59.043Z,92845.50
2022-08-19T09:47:30.621Z,92846.78
2022-08-19T09:49:06.592Z,92846.34
2022-08-19T09:50:51.585Z,92843.09
2022-08-19T09:52:24.295Z,92845.75
2022-08-19T09:53:57.997Z,92845.91
2022-08-19T09:55:31.501Z,92844.06
2022-08-19T09:57:05.099Z,92841.72
2022-08-19T09:58:39.592Z,92843.59
2022-08-19T10:00:11.848Z,92835.03
2022-08-19T10:01:43.842Z,92842.94
2022-08-19T10:03:18.216Z,92842.44
2022-08-19T10:05:09.157Z,92826.41
2022-08-19T10:06:46.911Z,92831.75
2022-08-19T10:08:20.664Z,92829.50
2022-08-19T10:09:54.042Z,92823.56
2022-08-19T10:11:40.048Z,92823.53
2022-08-19T10:13:15.016Z,92826.00
2022-08-19T10:14:47.908Z,92826.75
2022-08-19T10:16:22.978Z,92816.44
2022-08-19T10:18:00.464Z,92820.03
2022-08-19T10:19:39.024Z,92816.78
2022-08-19T10:21:14.129Z,92823.00
2022-08-19T10:22:51.878Z,92815.78
2022-08-19T10:24:30.759Z,92806.84
2022-08-19T10:26:09.307Z,92808.50
2022-08-19T10:27:48.233Z,92817.66
2022-08-19T10:29:32.049Z,92813.22
2022-08-19T10:31:13.703Z,92808.75
2022-08-19T10:32:50.732Z,92810.78
2022-08-19T10:34:27.853Z,92811.72
2022-08-19T10:36:01.105Z,92812.00
2022-08-19T10:37:34.062Z,92805.75
2022-08-19T10:39:08.840Z,92799.25
2022-08-19T10:40:43.953Z,92801.13
2022-08-19T10:42:18.554Z,92803.63
2022-08-19T10:43:55.782Z,92805.00
2022-08-19T10:45:28.899Z,92811.34
2022-08-19T10:47:03.454Z,92803.44
2022-08-19T10:48:36.113Z,92797.47
2022-08-19T10:50:29.106Z,92799.94
2022-08-19T10:52:21.990Z,92805.88
2022-08-19T10:53:55.777Z,92802.91
2022-08-19T10:55:49.156Z,92806.03
2022-08-19T10:57:20.896Z,92794.84
2022-08-19T10:59:01.177Z,92800.25
2022-08-19T11:00:35.053Z,92797.00
2022-08-19T11:02:14.916Z,92800.09
2022-08-19T11:03:49.007Z,92792.50
2022-08-19T11:05:21.251Z,92790.63
2022-08-19T11:06:58.743Z,92788.47
2022-08-19T11:08:34.344Z,92787.84
2022-08-19T11:10:12.946Z,92786.31
2022-08-19T11:11:44.899Z,92780.25
2022-08-19T11:13:20.045Z,92783.00
2022-08-19T11:14:54.438Z,92769.94
2022-08-19T11:16:29.058Z,92782.50
2022-08-19T11:18:00.871Z,92774.00
2022-08-19T11:19:38.960Z,92769.16
2022-08-19T11:21:14.900Z,92769.25
2022-08-19T11:22:55.690Z,92767.91
2022-08-19T11:24:29.627Z,92770.06
2022-08-19T11:26:04.769Z,92774.88
2022-08-19T11:27:40.766Z,92780.94
2022-08-19T11:29:15.139Z,92769.09
2022-08-19T11:30:50.321Z,92769.59
2022-08-19T11:32:23.959Z,92767.22
2022-08-19T11:33:59.335Z,92764.97
2022-08-19T11:35:33.531Z,92772.03
2022-08-19T11:37:05.734Z,92767.00
2022-08-19T11:38:40.248Z,92763.47
2022-08-19T11:40:18.972Z,92764.72
2022-08-19T11:41:51.165Z,92761.72
2022-08-19T11:43:23.352Z,92761.25
2022-08-19T11:44:55.109Z,92758.72
2022-08-19T11:46:27.405Z,92759.47
2022-08-19T11:47:59.441Z,92754.75
2022-08-19T11:49:31.084Z,92753.59
2022-08-19T11:51:06.654Z,92761.13
2022-08-19T11:52:38.470Z,92748.50
2022-08-19T11:54:10.789Z,92750.81
2022-08-19T11:55:44.257Z,92754.78
2022-08-19T11:57:18.055Z,92753.81
2022-08-19T11:58:50.234Z,92747.97
2022-08-19T12:00:22.885Z,92755.50
2022-08-19T12:01:54.674Z,92748.16
2022-08-19T12:03:26.586Z,92738.56
2022-08-19T12:04:58.689Z,92727.44
2022-08-19T12:06:31.780Z,92737.00
2022-08-19T12:08:03.601Z,92732.25
2022-08-19T12:09:35.672Z,92733.81
2022-08-19T12:11:09.015Z,92736.22
2022-08-19T12:12:43.722Z,92739.09
2022-08-19T12:14:17.780Z,92737.53
2022-08-19T12:15:51.521Z,92732.34
2022-08-19T12:17:27.167Z,92729.75
2022-08-19T12:19:00.161Z,92720.34
2022-08-19T12:20:31.860Z,92730.22
2022-08-19T12:22:08.697Z,92721.78
2022-08-19T12:23:41.848Z,92720.09
2022-08-19T12:25:13.797Z,92713.97
2022-08-19T12:26:53.548Z,92719.50
2022-08-19T12:28:25.949Z,92710.19
2022-08-19T12:29:58.344Z,92717.91
2022-08-19T12:31:30.128Z,92711.66
2022-08-19T12:33:01.815Z,92712.16
2022-08-19T12:34:33.633Z,92709.06
2022-08-19T12:36:06.692Z,92710.69
2022-08-19T12:37:38.765Z,92695.69
2022-08-19T12:39:10.760Z,92706.22
2022-08-19T12:40:48.583Z,92709.22
2022-08-19T12:42:21.135Z,92710.97
2022-08-19T12:43:53.187Z,92707.91
2022-08-19T12:45:26.079Z,92704.50
2022-08-19T12:46:58.560Z,92701.19
2022-08-19T12:48:33.218Z,92706.91
2022-08-19T12:50:07.798Z,92699.66
2022-08-19T12:51:39.450Z,92700.41
2022-08-19T12:53:11.523Z,92696.94
2022-08-19T12:54:44.590Z,92698.69
2022-08-19T12:56:18.183Z,92696.84
2022-08-19T12:57:52.265Z,92695.56
2022-08-19T12:59:24.741Z,92686.88
2022-08-19T13:00:57.100Z,92699.41
2022-08-19T13:02:29.295Z,92698.53
2022-08-19T13:04:01.470Z,92689.97
2022-08-19T13:05:34.619Z,92696.25
2022-08-19T13:07:06.405Z,92699.88
2022-08-19T13:08:39.589Z,92690.84
2022-08-19T13:10:12.934Z,92688.88
2022-08-19T13:11:45.775Z,92681.69
2022-08-19T13:13:17.874Z,92677.06
2022-08-19T13:14:51.509Z,92678.31
2022-08-19T13:16:23.530Z,92677.53
2022-08-19T13:17:56.922Z,92667.66
2022-08-19T13:19:29.750Z,92668.22
2022-08-19T13:21:12.293Z,92646.06
2022-08-19T13:22:45.716Z,92671.53
2022-08-19T13:24:17.824Z,92675.50
2022-08-19T13:25:59.788Z,92676.22
2022-08-19T13:27:31.545Z,92666.53
2022-08-19T13:29:22.005Z,92662.63
2022-08-19T13:31:12.681Z,92666.59
2022-08-19T13:33:03.603Z,92667.94
2022-08-19T13:34:36.644Z,92664.44
2022-08-19T13:36:09.252Z,92667.03
2022-08-19T13:37:43.104Z,92666.53
2022-08-19T13:39:15.571Z,92666.53
2022-08-19T13:40:47.745Z,92669.84
2022-08-19T13:42:20.276Z,92664.38
2022-08-19T13:43:52.760Z,92666.69
2022-08-19T13:45:25.804Z,92658.31
2022-08-19T13:47:08.579Z,92658.31
2022-08-19T13:48:40.819Z,92655.22
2022-08-19T13:50:13.482Z,92652.97
2022-08-19T13:51:46.709Z,92652.78
2022-08-19T13:53:18.922Z,92653.81
2022-08-19T13:54:51.199Z,92654.09
2022-08-19T13:56:26.351Z,92643.56
2022-08-19T13:57:59.261Z,92651.22
2022-08-19T13:59:31.715Z,92645.13
2022-08-19T14:01:03.989Z,92650.31
2022-08-19T14:02:36.391Z,92648.59
2022-08-19T14:04:08.355Z,92638.00
2022-08-19T14:05:40.335Z,92645.50
2022-08-19T14:07:12.236Z,92641.16
2022-08-19T14:08:46.416Z,92645.00
2022-08-19T14:10:19.311Z,92638.81
2022-08-19T14:11:52.058Z,92643.94
2022-08-19T14:13:24.349Z,92641.91
2022-08-19T14:14:56.295Z,92649.56
2022-08-19T14:16:28.580Z,92648.09
2022-08-19T14:18:00.751Z,92648.38
2022-08-19T14:19:33.505Z,92645.38
2022-08-19T14:21:06.337Z,92641.09
2022-08-19T14:22:38.780Z,92640.09
2022-08-19T14:24:10.805Z,92634.28
2022-08-19T14:25:43.182Z,92642.00
2022-08-19T14:27:16.334Z,92636.41
2022-08-19T14:28:48.121Z,92636.41
2022-08-19T14:30:21.934Z,92634.38
2022-08-19T14:31:53.820Z,92640.25
2022-08-19T14:33:28.329Z,92630.38
2022-08-19T14:35:05.272Z,92629.88
2022-08-19T14:36:39.333Z,92633.47
2022-08-19T14:38:15.435Z,92636.00
2022-08-19T14:39:47.320Z,92630.97
2022-08-19T14:41:20.672Z,92629.09
2022-08-19T14:43:01.362Z,92627.59
2022-08-19T14:44:34.906Z,92625.84
2022-08-19T14:46:07.055Z,92626.13
2022-08-19T14:47:40.816Z,92624.59
2022-08-19T14:49:13.270Z,92623.81
2022-08-19T14:50:45.702Z,92627.19
2022-08-19T14:52:18.393Z,92623.63
2022-08-19T14:53:50.169Z,92622.06
2022-08-19T14:55:21.739Z,92618.78
2022-08-19T14:56:53.397Z,92621.56
2022-08-19T14:58:29.582Z,92622.63
2022-08-19T15:00:02.174Z,92631.06
2022-08-19T15:01:33.940Z,92623.25
2022-08-19T15:03:06.081Z,92622.63
2022-08-19T15:04:38.703Z,92618.50
2022-08-19T15:06:12.746Z,92613.06
2022-08-19T15:07:45.007Z,92616.38
2022-08-19T15:09:16.974Z,92618.50
2022-08-19T15:10:49.277Z,92619.31
2022-08-19T15:12:21.978Z,92620.28
2022-08-19T15:13:54.106Z,92612.28
2022-08-19T15:15:25.777Z,92629.97
2022-08-19T15:16:57.482Z,92618.94
2022-08-19T15:18:29.147Z,92611.78
2022-08-19T15:20:01.690Z,92614.56
2022-08-19T15:21:33.727Z,92617.00
2022-08-19T15:23:05.350Z,92619.59
2022-08-19T15:24:37.042Z,92612.34
2022-08-19T15:26:20.588Z,92618.53
2022-08-19T15:27:53.998Z,92612.88
2022-08-19T15:29:26.819Z,92607.88
2022-08-19T15:30:58.514Z,92615.91
2022-08-19T15:32:30.395Z,92613.97
2022-08-19T15:34:02.123Z,92614.56
2022-08-19T15:35:34.490Z,92617.47
2022-08-19T15:37:06.502Z,92609.84
2022-08-19T15:38:41.131Z,92613.22
2022-08-19T15:40:15.300Z,92606.63
2022-08-19T15:41:47.148Z,92606.72
2022-08-19T15:43:19.330Z,92606.59
2022-08-19T15:44:52.306Z,92600.91
2022-08-19T15:46:26.814Z,92606.53
2022-08-19T15:48:01.982Z,92604.38
2022-08-19T15:49:33.757Z,92600.53
2022-08-19T15:51:05.467Z,92599.16
2022-08-19T15:52:37.259Z,92607.81
2022-08-19T15:54:24.194Z,92607.19
2022-08-19T15:55:55.969Z,92605.84
2022-08-19T15:57:27.636Z,92603.41
2022-08-19T15:59:18.027Z,92599.91
2022-08-19T16:01:12.725Z,92597.97
2022-08-19T16:03:17.021Z,92602.47
2022-08-19T16:05:07.833Z,92603.59
2022-08-19T16:06:40.731Z,92600.41
2022-08-19T16:08:12.903Z,92604.31
2022-08-19T16:09:44.604Z,92607.66
2022-08-19T16:11:21.258Z,92604.91
2022-08-19T16:12:53.755Z,92603.69
2022-08-19T16:14:26.019Z,92604.78
2022-08-19T16:15:58.302Z,92598.00
2022-08-19T16:17:29.950Z,92603.94
2022-08-19T16:19:02.657Z,92605.22
2022-08-19T16:20:35.606Z,92602.47
2022-08-19T16:22:07.471Z,92598.13
2022-08-19T16:23:39.098Z,92606.22
2022-08-19T16:25:10.983Z,92604.84
2022-08-19T16:26:44.966Z,92609.06
2022-08-19T16:28:16.879Z,92604.41
2022-08-19T16:29:48.465Z,92608.91
2022-08-19T16:31:20.199Z,92605.53
2022-08-19T16:32:52.128Z,92609.06
2022-08-19T16:34:24.902Z,92606.44
2022-08-19T16:36:00.461Z,92603.81
2022-08-19T16:37:41.473Z,92603.22
2022-08-19T16:39:13.286Z,92597.63
2022-08-19T16:40:46.764Z,92612.63
2022-08-19T16:42:18.850Z,92611.06
2022-08-19T16:43:52.755Z,92605.03
2022-08-19T16:45:24.529Z,92602.69
2022-08-19T16:46:58.661Z,92600.00
2022-08-19T16:48:30.615Z,92599.34
2022-08-19T16:50:02.476Z,92599.78
2022-08-19T16:51:34.382Z,92602.34
2022-08-19T16:53:08.701Z,92594.38
2022-08-19T16:54:40.384Z,92595.72
2022-08-19T16:56:15.730Z,92593.69
2022-08-19T16:57:48.047Z,92595.63
2022-08-19T16:59:19.955Z,92597.16
2022-08-19T17:00:54.987Z,92591.97
2022-08-19T17:02:29.554Z,92587.25
2022-08-19T17:04:02.051Z,92593.22
2022-08-19T17:05:33.818Z,92601.16
2022-08-19T17:07:05.828Z,92601.06
2022-08-19T17:08:37.423Z,92596.19
2022-08-19T17:10:09.620Z,92598.47
2022-08-19T17:11:41.280Z,92602.41
2022-08-19T17:13:15.399Z,92600.63
2022-08-19T17:14:47.126Z,92602.78
2022-08-19T17:16:19.965Z,92610.25
2022-08-19T17:17:53.375Z,92604.91
2022-08-19T17:19:25.424Z,92603.13
2022-08-19T17:20:57.478Z,92612.03
2022-08-19T17:22:29.999Z,92605.50
2022-08-19T17:24:03.144Z,92606.63
2022-08-19T17:25:35.107Z,92611.16
2022-08-19T17:27:07.495Z,92609.06
2022-08-19T17:28:39.158Z,92612.53
2022-08-19T17:30:10.874Z,92613.50
2022-08-19T17:31:43.008Z,92607.38
2022-08-19T17:33:15.058Z,92603.28
2022-08-19T17:34:46.989Z,92615.34
2022-08-19T17:36:24.697Z,92615.94
2022-08-19T17:37:57.625Z,92617.81
2022-08-19T17:39:29.436Z,92610.78
2022-08-19T17:41:05.368Z,92625.19
2022-08-19T17:42:37.085Z,92615.78
2022-08-19T17:44:09.668Z,92618.72
2022-08-19T17:45:41.705Z,92616.69
2022-08-19T17:47:13.407Z,92613.69
2022-08-19T17:48:48.449Z,92617.56
2022-08-19T17:50:23.592Z,92610.66
2022-08-19T17:51:55.842Z,92616.38
2022-08-19T17:53:27.565Z,92623.34
2022-08-19T17:54:59.514Z,92618.63
2022-08-19T17:56:31.306Z,92623.84
2022-08-19T17:58:05.363Z,92622.47
2022-08-19T17:59:39.883Z,92618.69
2022-08-19T18:01:11.933Z,92612.09
2022-08-19T18:02:51.673Z,92617.28
2022-08-19T18:04:24.841Z,92617.41
2022-08-19T18:05:57.226Z,92621.38
2022-08-19T18:07:30.523Z,92621.91
2022-08-19T18:09:03.008Z,92625.53
2022-08-19T18:10:35.406Z,92620.09
2022-08-19T18:12:07.999Z,92625.72
2022-08-19T18:13:41.029Z,92631.03
2022-08-19T18:15:13.168Z,92622.00
2022-08-19T18:16:46.761Z,92624.41
2022-08-19T18:18:18.837Z,92622.16
2022-08-19T18:19:51.310Z,92621.81
2022-08-19T18:21:30.100Z,92621.91
2022-08-19T18:23:45.559Z,92624.75
2022-08-19T18:24:54.215Z,92622.41
2022-08-19T18:26:27.529Z,92631.16
2022-08-19T18:28:01.014Z,92625.28
2022-08-19T18:29:34.260Z,92623.28
2022-08-19T18:31:06.833Z,92631.31
2022-08-19T18:32:40.041Z,92634.50